createdAt,value
2023-03-31T00:01:44.969Z,7.66
2023-03-31T00:04:14.152Z,7.74
2023-03-31T00:06:43.367Z,7.60
2023-03-31T00:09:13.429Z,7.62
2023-03-31T00:11:42.272Z,7.68
2023-03-31T00:14:10.880Z,7.71
2023-03-31T00:16:40.243Z,7.69
2023-03-31T00:19:14.054Z,7.60
2023-03-31T00:21:45.673Z,7.66
2023-03-31T00:24:14.527Z,7.68
2023-03-31T00:26:45.347Z,7.76
2023-03-31T00:29:14.758Z,7.86
2023-03-31T00:31:44.002Z,7.78
2023-03-31T00:34:12.671Z,7.74
2023-03-31T00:36:47.951Z,7.75
2023-03-31T00:39:19.335Z,7.69
2023-03-31T00:41:48.225Z,7.57
2023-03-31T00:44:23.301Z,7.63
2023-03-31T00:47:02.993Z,7.52
2023-03-31T00:49:33.525Z,7.40
2023-03-31T00:52:16.559Z,7.41
2023-03-31T00:54:45.928Z,7.58
2023-03-31T00:57:15.240Z,7.57
2023-03-31T00:59:46.480Z,7.58
2023-03-31T01:02:15.735Z,7.54
2023-03-31T01:04:46.542Z,7.55
2023-03-31T01:07:23.476Z,7.42
2023-03-31T01:09:54.745Z,7.45
2023-03-31T01:12:23.586Z,7.50
2023-03-31T01:14:52.553Z,7.32
2023-03-31T01:17:22.056Z,7.50
2023-03-31T01:19:52.380Z,7.53
2023-03-31T01:22:46.469Z,7.52
2023-03-31T01:25:21.460Z,7.42
2023-03-31T01:28:02.460Z,7.24
2023-03-31T01:30:37.686Z,7.10
2023-03-31T01:33:17.013Z,7.07
2023-03-31T01:46:23.254Z,7.10
2023-03-31T01:49:53.416Z,7.25
2023-03-31T01:52:50.364Z,7.36
2023-03-31T02:05:45.831Z,7.47
2023-03-31T02:08:55.925Z,7.34
2023-03-31T02:21:23.141Z,7.33
2023-03-31T02:24:17.745Z,7.22
2023-03-31T02:27:17.433Z,7.26
2023-03-31T02:33:27.719Z,7.27
2023-03-31T02:36:13.303Z,7.28
2023-03-31T02:42:27.923Z,7.07
2023-03-31T02:48:46.581Z,6.99
2023-03-31T03:02:16.620Z,6.91
2023-03-31T03:04:51.913Z,7.14
2023-03-31T03:07:23.649Z,7.18
2023-03-31T03:10:02.775Z,7.18
2023-03-31T03:12:41.979Z,7.03
2023-03-31T03:15:15.469Z,7.13
2023-03-31T03:17:45.041Z,6.91
2023-03-31T03:20:14.347Z,6.92
2023-03-31T03:22:45.852Z,7.09
2023-03-31T03:25:14.908Z,7.16
2023-03-31T03:27:44.562Z,7.19
2023-03-31T03:30:13.765Z,7.25
2023-03-31T03:32:43.806Z,7.24
2023-03-31T03:35:12.724Z,7.25
2023-03-31T03:37:41.610Z,7.21
2023-03-31T03:40:10.849Z,7.38
2023-03-31T03:42:40.241Z,7.19
2023-03-31T03:45:12.750Z,7.17
2023-03-31T03:47:41.526Z,7.21
2023-03-31T03:50:10.825Z,7.36
2023-03-31T03:52:40.350Z,7.16
2023-03-31T03:55:09.616Z,7.25
2023-03-31T03:57:38.746Z,7.19
2023-03-31T04:00:14.196Z,7.18
2023-03-31T04:02:44.682Z,7.28
2023-03-31T04:05:13.725Z,7.20
2023-03-31T04:07:42.365Z,7.32
2023-03-31T04:10:15.938Z,7.16
2023-03-31T04:12:45.527Z,7.36
2023-03-31T04:15:14.261Z,7.35
2023-03-31T04:17:51.496Z,7.19
2023-03-31T04:20:21.124Z,7.40
2023-03-31T04:22:51.228Z,7.19
2023-03-31T04:25:20.191Z,7.36
2023-03-31T04:27:55.169Z,7.29
2023-03-31T04:30:31.305Z,7.36
2023-03-31T04:33:01.637Z,7.42
2023-03-31T04:35:50.712Z,7.24
2023-03-31T04:38:21.253Z,7.37
2023-03-31T04:40:50.958Z,7.28
2023-03-31T04:43:20.630Z,7.44
2023-03-31T04:45:49.861Z,7.40
2023-03-31T04:48:19.793Z,7.40
2023-03-31T04:50:49.514Z,7.20
2023-03-31T04:53:18.313Z,7.23
2023-03-31T04:55:50.218Z,7.26
2023-03-31T04:58:19.158Z,7.16
2023-03-31T05:00:54.085Z,7.09
2023-03-31T05:03:24.342Z,7.27
2023-03-31T05:05:54.877Z,6.93
2023-03-31T05:08:23.703Z,6.70
2023-03-31T05:10:56.483Z,6.71
2023-03-31T05:13:26.403Z,6.82
2023-03-31T05:15:55.376Z,6.79
2023-03-31T05:18:30.794Z,6.74
2023-03-31T05:21:08.795Z,6.66
2023-03-31T05:23:37.822Z,6.70
2023-03-31T05:26:08.772Z,6.58
2023-03-31T05:28:38.993Z,6.64
2023-03-31T05:31:08.195Z,6.60
2023-03-31T05:33:42.412Z,6.83
2023-03-31T05:36:12.559Z,6.72
2023-03-31T05:38:41.909Z,6.57
2023-03-31T05:41:11.506Z,6.72
2023-03-31T05:43:40.516Z,6.53
2023-03-31T05:46:09.853Z,6.64
2023-03-31T05:48:39.318Z,6.62
2023-03-31T05:51:08.215Z,6.59
2023-03-31T05:53:37.567Z,6.61
2023-03-31T05:56:10.272Z,6.61
2023-03-31T05:58:40.548Z,6.59
2023-03-31T06:01:12.258Z,6.54
2023-03-31T06:03:42.993Z,6.43
2023-03-31T06:06:13.693Z,6.39
2023-03-31T06:08:48.432Z,6.36
2023-03-31T06:11:22.244Z,6.35
2023-03-31T06:13:51.319Z,6.35
2023-03-31T06:16:22.150Z,6.20
2023-03-31T06:18:54.080Z,6.19
2023-03-31T06:21:23.223Z,6.46
2023-03-31T06:23:56.522Z,6.33
2023-03-31T06:26:25.379Z,6.29
2023-03-31T06:28:54.445Z,6.19
2023-03-31T06:31:24.351Z,6.01
2023-03-31T06:33:53.722Z,6.12
2023-03-31T06:36:23.044Z,5.88
2023-03-31T06:38:52.186Z,5.96
2023-03-31T06:41:21.623Z,6.15
2023-03-31T06:43:50.712Z,6.24
2023-03-31T06:46:19.835Z,6.26
2023-03-31T06:48:49.257Z,6.16
2023-03-31T06:51:18.540Z,6.10
2023-03-31T06:53:48.457Z,6.12
2023-03-31T06:56:19.279Z,6.19
2023-03-31T06:58:49.584Z,6.04
2023-03-31T07:01:18.585Z,6.02
2023-03-31T07:03:48.669Z,6.14
2023-03-31T07:06:18.629Z,6.17
2023-03-31T07:08:47.664Z,6.04
2023-03-31T07:11:17.167Z,6.08
2023-03-31T07:13:50.202Z,6.05
2023-03-31T07:16:19.555Z,5.91
2023-03-31T07:18:51.365Z,5.91
2023-03-31T07:21:40.429Z,5.92
2023-03-31T07:24:09.467Z,5.92
2023-03-31T07:26:39.122Z,5.77
2023-03-31T07:29:08.672Z,5.86
2023-03-31T07:31:38.527Z,5.88
2023-03-31T07:34:09.131Z,5.83
2023-03-31T07:36:38.095Z,5.63
2023-03-31T07:39:07.675Z,5.59
2023-03-31T07:41:38.303Z,5.61
2023-03-31T07:44:07.935Z,5.52
2023-03-31T07:46:37.581Z,5.51
2023-03-31T07:49:07.896Z,5.33
2023-03-31T07:51:37.101Z,5.64
2023-03-31T07:54:06.522Z,5.69
2023-03-31T07:56:39.731Z,5.62
2023-03-31T07:59:08.995Z,5.59
2023-03-31T08:01:39.038Z,5.71
2023-03-31T08:04:12.428Z,5.68
2023-03-31T08:06:41.733Z,5.65
2023-03-31T08:09:10.986Z,5.57
2023-03-31T08:11:39.822Z,5.53
2023-03-31T08:14:09.224Z,5.38
2023-03-31T08:16:38.198Z,5.13
2023-03-31T08:19:08.746Z,5.03
2023-03-31T08:21:37.934Z,5.08
2023-03-31T08:24:10.371Z,5.00
2023-03-31T08:26:39.753Z,5.10
2023-03-31T08:29:08.708Z,5.00
2023-03-31T08:31:38.219Z,5.05
2023-03-31T08:34:07.335Z,5.04
2023-03-31T08:36:37.664Z,4.96
2023-03-31T08:39:08.079Z,4.90
2023-03-31T08:41:56.557Z,5.02
2023-03-31T08:44:25.583Z,4.99
2023-03-31T08:46:55.161Z,4.81
2023-03-31T08:49:24.353Z,4.87
2023-03-31T08:51:59.702Z,4.98
2023-03-31T08:54:36.709Z,4.96
2023-03-31T08:57:06.681Z,4.59
2023-03-31T08:59:39.505Z,4.72
2023-03-31T09:02:28.131Z,4.73
2023-03-31T09:04:57.567Z,4.85
2023-03-31T09:07:46.039Z,4.64
2023-03-31T09:10:17.923Z,4.42
2023-03-31T09:12:58.324Z,4.59
2023-03-31T09:15:29.764Z,4.53
2023-03-31T09:18:00.210Z,4.55
2023-03-31T09:20:38.014Z,4.39
2023-03-31T09:23:10.186Z,4.48
2023-03-31T09:25:39.069Z,4.21
2023-03-31T09:28:14.661Z,4.10
2023-03-31T09:30:43.669Z,4.06
2023-03-31T09:33:20.783Z,4.20
2023-03-31T09:35:51.977Z,4.21
2023-03-31T09:38:30.059Z,4.11
2023-03-31T09:40:59.877Z,4.20
2023-03-31T09:43:30.178Z,4.25
2023-03-31T09:46:09.152Z,4.04
2023-03-31T09:48:39.737Z,3.95
2023-03-31T09:51:09.120Z,3.96
2023-03-31T09:53:44.117Z,3.85
2023-03-31T09:56:14.375Z,3.86
2023-03-31T09:58:44.185Z,3.77
2023-03-31T10:01:13.695Z,3.58
2023-03-31T10:04:03.267Z,3.83
2023-03-31T10:06:40.089Z,4.07
2023-03-31T10:09:10.182Z,4.02
2023-03-31T10:11:39.245Z,4.05
2023-03-31T10:14:15.029Z,3.90
2023-03-31T10:16:47.644Z,3.58
2023-03-31T10:19:21.068Z,3.55
2023-03-31T10:21:59.866Z,3.50
2023-03-31T10:24:41.985Z,3.60
2023-03-31T10:27:19.949Z,4.00
2023-03-31T10:29:49.305Z,4.06
2023-03-31T10:32:21.156Z,4.01
2023-03-31T10:34:53.001Z,4.05
2023-03-31T10:37:23.077Z,4.16
2023-03-31T10:40:09.768Z,4.21
2023-03-31T10:42:38.691Z,4.26
2023-03-31T10:45:36.626Z,4.37
2023-03-31T10:48:07.662Z,4.48
2023-03-31T10:50:37.281Z,4.49
2023-03-31T10:53:07.847Z,4.43
2023-03-31T10:56:12.294Z,4.48
2023-03-31T10:59:05.281Z,4.51
2023-03-31T11:01:35.321Z,4.52
2023-03-31T11:04:19.919Z,4.53
2023-03-31T11:06:52.396Z,4.59
2023-03-31T11:09:30.695Z,4.41
2023-03-31T11:12:03.649Z,4.28
2023-03-31T11:14:42.026Z,4.24
2023-03-31T11:17:17.395Z,4.49
2023-03-31T11:20:07.424Z,4.53
2023-03-31T11:22:55.570Z,4.55
2023-03-31T11:25:24.851Z,4.79
2023-03-31T11:28:13.694Z,4.79
2023-03-31T11:30:49.154Z,4.80
2023-03-31T11:33:26.064Z,4.70
2023-03-31T11:36:00.694Z,4.58
2023-03-31T11:38:54.256Z,4.87
2023-03-31T11:41:33.618Z,4.95
2023-03-31T11:44:04.561Z,4.96
2023-03-31T11:46:41.775Z,4.93
2023-03-31T11:49:17.119Z,4.93
2023-03-31T11:52:02.848Z,4.94
2023-03-31T11:54:32.048Z,4.75
2023-03-31T11:57:28.345Z,4.75
2023-03-31T11:59:59.079Z,4.79
2023-03-31T12:02:34.360Z,4.79
2023-03-31T12:05:04.734Z,4.83
2023-03-31T12:07:42.590Z,4.86
2023-03-31T12:10:13.451Z,4.79
2023-03-31T12:12:43.584Z,4.79
2023-03-31T12:15:19.996Z,4.72
2023-03-31T12:17:53.496Z,4.75
2023-03-31T12:20:26.030Z,4.66
2023-03-31T12:22:55.166Z,4.58
2023-03-31T12:25:27.135Z,4.40
2023-03-31T12:27:57.476Z,4.51
2023-03-31T12:30:38.161Z,4.27
2023-03-31T12:33:16.795Z,4.16
2023-03-31T12:35:51.864Z,4.22
2023-03-31T12:38:23.770Z,4.22
2023-03-31T12:41:08.136Z,4.13
2023-03-31T12:43:58.213Z,4.06
2023-03-31T12:46:46.063Z,4.00
2023-03-31T12:49:21.641Z,4.06
2023-03-31T12:52:10.290Z,3.86
2023-03-31T12:54:45.633Z,3.97
2023-03-31T12:57:17.314Z,3.84
2023-03-31T12:59:46.692Z,4.04
2023-03-31T13:02:15.814Z,4.09
2023-03-31T13:04:45.124Z,4.04
2023-03-31T13:07:27.183Z,4.17
2023-03-31T13:10:24.400Z,4.23
2023-03-31T13:12:58.042Z,4.42
2023-03-31T13:15:27.483Z,4.23
2023-03-31T13:18:00.618Z,4.27
2023-03-31T13:20:32.284Z,4.19
2023-03-31T13:23:21.055Z,4.15
2023-03-31T13:25:53.592Z,4.11
2023-03-31T13:28:22.879Z,4.03
2023-03-31T13:30:59.078Z,4.16
2023-03-31T13:33:28.917Z,4.14
2023-03-31T13:36:18.267Z,4.28
2023-03-31T13:38:47.546Z,4.23
2023-03-31T13:41:38.995Z,4.31
2023-03-31T13:44:18.126Z,4.14
2023-03-31T13:46:52.784Z,4.03
2023-03-31T13:49:45.072Z,4.21
2023-03-31T13:52:14.025Z,4.13
2023-03-31T13:55:16.660Z,4.09
2023-03-31T13:57:50.384Z,4.01
2023-03-31T14:00:58.075Z,4.11
2023-03-31T14:03:47.128Z,4.19
2023-03-31T14:06:19.503Z,4.16
2023-03-31T14:08:54.404Z,4.39
2023-03-31T14:11:26.900Z,4.36
2023-03-31T14:14:07.274Z,4.75
2023-03-31T14:16:56.504Z,4.85
2023-03-31T14:19:28.496Z,5.11
2023-03-31T14:22:01.634Z,5.46
2023-03-31T14:24:49.599Z,5.68
2023-03-31T14:27:31.318Z,5.95
2023-03-31T14:30:00.497Z,6.38
2023-03-31T14:32:34.027Z,6.51
2023-03-31T14:35:05.749Z,6.64
2023-03-31T14:37:35.567Z,6.95
2023-03-31T14:40:05.502Z,7.08
2023-03-31T14:42:41.875Z,7.10
2023-03-31T14:45:25.791Z,7.08
2023-03-31T14:47:57.944Z,7.14
2023-03-31T14:50:31.881Z,7.40
2023-03-31T14:53:01.905Z,7.56
2023-03-31T14:55:54.245Z,7.88
2023-03-31T14:58:24.883Z,7.95
2023-03-31T15:00:54.473Z,8.04
2023-03-31T15:03:26.270Z,8.21
2023-03-31T15:05:58.801Z,8.32
2023-03-31T15:08:27.588Z,8.54
2023-03-31T15:11:02.439Z,8.80
2023-03-31T15:14:03.606Z,8.95
2023-03-31T15:16:43.041Z,9.07
2023-03-31T15:19:16.865Z,9.05
2023-03-31T15:21:46.194Z,9.01
2023-03-31T15:24:15.046Z,9.05
2023-03-31T15:26:56.518Z,9.10
2023-03-31T15:29:38.610Z,9.13
2023-03-31T15:32:09.014Z,9.07
2023-03-31T15:34:38.311Z,9.04
2023-03-31T15:37:10.280Z,9.30
2023-03-31T15:39:40.312Z,9.31
2023-03-31T15:42:09.118Z,9.38
2023-03-31T15:44:40.366Z,9.41
2023-03-31T15:47:13.769Z,9.65
2023-03-31T15:49:53.080Z,9.54
2023-03-31T15:52:23.327Z,9.64
2023-03-31T15:54:52.366Z,9.69
2023-03-31T15:57:22.786Z,9.74
2023-03-31T15:59:56.675Z,9.89
2023-03-31T16:02:44.558Z,9.78
2023-03-31T16:08:13.755Z,9.82
2023-03-31T16:10:42.513Z,10.03
2023-03-31T16:13:18.149Z,10.01
2023-03-31T16:15:48.592Z,10.10
2023-03-31T16:18:18.493Z,10.11
2023-03-31T16:20:54.183Z,10.24
2023-03-31T16:23:45.056Z,9.91
2023-03-31T16:26:15.144Z,9.88
2023-03-31T16:28:46.567Z,9.92
2023-03-31T16:31:29.049Z,10.06
2023-03-31T16:33:58.489Z,10.05
2023-03-31T16:36:27.804Z,10.11
2023-03-31T16:38:59.116Z,10.16
2023-03-31T16:41:29.645Z,10.13
2023-03-31T16:43:59.685Z,9.98
2023-03-31T16:46:32.705Z,9.99
2023-03-31T16:49:01.851Z,10.09
2023-03-31T16:51:31.493Z,9.96
2023-03-31T16:54:00.269Z,9.88
2023-03-31T16:56:28.942Z,9.84
2023-03-31T16:58:57.979Z,9.92
2023-03-31T17:01:26.980Z,9.94
2023-03-31T17:03:57.078Z,10.08
2023-03-31T17:06:26.226Z,10.13
2023-03-31T17:08:57.444Z,10.06
2023-03-31T17:11:33.767Z,9.95
2023-03-31T17:14:05.842Z,10.00
2023-03-31T17:16:47.341Z,9.96
2023-03-31T17:19:18.403Z,10.03
2023-03-31T17:21:47.305Z,10.06
2023-03-31T17:24:16.705Z,10.05
2023-03-31T17:26:46.287Z,10.21
2023-03-31T17:29:16.654Z,10.10
2023-03-31T17:31:46.621Z,10.12
2023-03-31T17:34:15.954Z,10.03
2023-03-31T17:36:45.716Z,10.00
2023-03-31T17:39:14.863Z,9.99
2023-03-31T17:41:44.179Z,10.00
2023-03-31T17:44:15.264Z,10.03
2023-03-31T17:46:45.604Z,9.96
2023-03-31T17:49:14.941Z,10.03
2023-03-31T17:51:44.788Z,9.99
2023-03-31T17:54:15.203Z,9.99
2023-03-31T17:56:46.003Z,10.02
2023-03-31T17:59:14.881Z,9.96
2023-03-31T18:01:44.673Z,10.00
2023-03-31T18:04:15.410Z,9.97
2023-03-31T18:06:45.319Z,9.93
2023-03-31T18:09:15.198Z,9.89
2023-03-31T18:11:44.112Z,10.01
2023-03-31T18:14:14.033Z,10.00
2023-03-31T18:16:43.959Z,9.99
2023-03-31T18:19:12.929Z,9.93
2023-03-31T18:21:45.780Z,9.93
2023-03-31T18:24:15.023Z,10.02
2023-03-31T18:26:44.300Z,10.20
2023-03-31T18:29:16.995Z,10.28
2023-03-31T18:31:46.238Z,10.13
2023-03-31T18:34:16.926Z,10.12
2023-03-31T18:36:46.771Z,9.92
2023-03-31T18:39:16.623Z,9.92
2023-03-31T18:41:46.494Z,9.82
2023-03-31T18:44:17.894Z,9.84
2023-03-31T18:46:47.444Z,9.98
2023-03-31T18:49:16.973Z,10.06
2023-03-31T18:51:45.864Z,9.93
2023-03-31T18:54:14.789Z,9.95
2023-03-31T18:56:44.347Z,9.93
2023-03-31T18:59:14.932Z,9.97
2023-03-31T19:01:44.027Z,10.04
2023-03-31T19:04:13.445Z,10.03
2023-03-31T19:06:44.230Z,10.15
2023-03-31T19:09:12.954Z,10.33
2023-03-31T19:11:42.171Z,10.53
2023-03-31T19:14:11.240Z,10.64
2023-03-31T19:16:59.995Z,10.69
2023-03-31T19:19:37.226Z,10.69
2023-03-31T19:22:06.275Z,10.87
2023-03-31T19:24:35.165Z,10.90
2023-03-31T19:27:06.975Z,10.86
2023-03-31T19:29:36.534Z,11.00
2023-03-31T19:32:06.975Z,11.04
2023-03-31T19:34:36.942Z,10.94
2023-03-31T19:37:07.140Z,10.89
2023-03-31T19:39:37.379Z,10.69
2023-03-31T19:42:06.569Z,10.59
2023-03-31T19:44:36.035Z,10.54
2023-03-31T19:47:05.274Z,10.61
2023-03-31T19:49:34.562Z,10.62
2023-03-31T19:52:04.711Z,10.61
2023-03-31T19:54:34.154Z,10.62
2023-03-31T19:57:03.427Z,10.60
2023-03-31T19:59:33.973Z,10.51
2023-03-31T20:02:05.802Z,10.61
2023-03-31T20:04:35.684Z,10.63
2023-03-31T20:07:04.792Z,10.60
2023-03-31T20:09:34.011Z,10.75
2023-03-31T20:12:03.002Z,10.78
2023-03-31T20:14:34.910Z,11.08
2023-03-31T20:17:07.986Z,11.21
2023-03-31T20:19:36.992Z,11.18
2023-03-31T20:22:05.854Z,11.26
2023-03-31T20:24:35.272Z,11.18
2023-03-31T20:27:05.126Z,11.22
2023-03-31T20:29:37.496Z,11.36
2023-03-31T20:32:07.611Z,11.46
2023-03-31T20:34:36.699Z,11.50
2023-03-31T20:37:05.421Z,11.53
2023-03-31T20:39:35.101Z,11.62
2023-03-31T20:42:04.201Z,11.66
2023-03-31T20:44:33.221Z,11.61
2023-03-31T20:47:02.373Z,11.53
2023-03-31T20:49:31.772Z,11.59
2023-03-31T20:52:02.846Z,11.77
2023-03-31T20:54:32.495Z,11.70
2023-03-31T20:57:02.105Z,11.45
2023-03-31T20:59:33.260Z,11.37
2023-03-31T21:02:02.775Z,11.47
2023-03-31T21:04:31.980Z,11.36
2023-03-31T21:07:01.557Z,11.31
2023-03-31T21:09:31.438Z,11.21
2023-03-31T21:12:03.168Z,11.26
2023-03-31T21:14:32.643Z,11.38
2023-03-31T21:17:01.572Z,11.46
2023-03-31T21:19:32.216Z,11.44
2023-03-31T21:22:01.157Z,11.41
2023-03-31T21:24:30.170Z,11.47
2023-03-31T21:26:58.908Z,11.37
2023-03-31T21:29:28.102Z,11.28
2023-03-31T21:31:57.936Z,11.31
2023-03-31T21:34:27.822Z,11.32
2023-03-31T21:36:56.811Z,11.40
2023-03-31T21:39:25.912Z,11.74
2023-03-31T21:41:54.801Z,11.78
2023-03-31T21:44:23.527Z,11.77
2023-03-31T21:46:52.416Z,11.79
2023-03-31T21:49:22.301Z,11.79
2023-03-31T21:51:51.191Z,11.61
2023-03-31T21:54:19.912Z,11.61
2023-03-31T21:56:51.182Z,11.59
2023-03-31T21:59:21.724Z,11.48
2023-03-31T22:01:50.562Z,11.55
2023-03-31T22:04:20.933Z,11.50
2023-03-31T22:06:49.683Z,11.46
2023-03-31T22:09:18.707Z,11.45
2023-03-31T22:11:48.278Z,11.47
2023-03-31T22:14:22.786Z,11.52
2023-03-31T22:16:55.530Z,11.52
2023-03-31T22:19:26.864Z,11.47
2023-03-31T22:21:59.128Z,11.20
2023-03-31T22:24:27.965Z,11.19
2023-03-31T22:26:57.328Z,11.11
2023-03-31T22:29:26.742Z,10.97
2023-03-31T22:31:55.865Z,10.86
2023-03-31T22:34:25.471Z,10.93
2023-03-31T22:36:54.317Z,11.02
2023-03-31T22:39:23.795Z,10.88
2023-03-31T22:41:52.897Z,10.78
2023-03-31T22:44:22.318Z,11.00
2023-03-31T22:46:51.812Z,10.80
2023-03-31T22:49:20.815Z,10.80
2023-03-31T22:51:49.892Z,10.76
2023-03-31T22:54:18.933Z,10.77
2023-03-31T22:56:48.000Z,10.70
2023-03-31T22:59:17.698Z,10.75
2023-03-31T23:01:54.132Z,10.74
2023-03-31T23:04:26.094Z,10.53
2023-03-31T23:06:55.583Z,10.54
2023-03-31T23:09:25.230Z,10.68
2023-03-31T23:11:53.892Z,10.89
2023-03-31T23:14:25.001Z,10.89
2023-03-31T23:16:54.376Z,11.14
2023-03-31T23:19:23.074Z,11.17
2023-03-31T23:21:53.333Z,11.14
2023-03-31T23:24:25.482Z,11.08
2023-03-31T23:26:58.631Z,10.91
2023-03-31T23:29:27.926Z,10.95
2023-03-31T23:31:57.079Z,11.11
2023-03-31T23:34:27.210Z,11.39
2023-03-31T23:36:56.044Z,11.43
2023-03-31T23:39:31.703Z,11.60
2023-03-31T23:42:00.623Z,11.49
2023-03-31T23:44:30.990Z,11.81
2023-03-31T23:46:59.839Z,11.94
2023-03-31T23:49:28.746Z,12.02
2023-03-31T23:51:57.694Z,12.03
2023-03-31T23:54:27.134Z,12.00
2023-03-31T23:56:56.841Z,11.91
2023-03-31T23:59:26.016Z,11.98
